Time;durP1;ratioP1;P1;durP2;ratioP2;P2;SDS_P1;SDS_P2;PMS_P1;PMS_P2;Temp;Humidity;BMP_temperature;BMP_pressure;BME280_temperature;BME280_humidity;BME280_pressure;Samples;Min_cycle;Max_cycle;Signal;HPM_P1;HPM_P2
2023/06/10 00:01:31;;;;;;;6.47;4.35;;;17.60;99.90;;;;;;5010294;28;20392;-32
2023/06/10 00:03:57;;;;;;;9.00;4.82;;;17.60;99.90;;;;;;5010114;28;20033;-33
2023/06/10 00:06:24;;;;;;;5.28;4.30;;;17.60;99.90;;;;;;5010801;28;20462;-33
2023/06/10 00:08:51;;;;;;;6.90;4.63;;;17.60;99.90;;;;;;5009831;28;20076;-32
2023/06/10 00:11:16;;;;;;;7.28;4.15;;;17.60;99.90;;;;;;4994414;28;20050;-32
2023/06/10 00:13:43;;;;;;;6.30;4.40;;;17.60;99.90;;;;;;5009544;28;20072;-33
2023/06/10 00:16:08;;;;;;;7.22;4.80;;;17.60;99.90;;;;;;4990787;28;20053;-32
2023/06/10 00:18:36;;;;;;;7.45;5.18;;;17.50;99.90;;;;;;5007996;28;20037;-33
2023/06/10 00:21:04;;;;;;;5.90;4.60;;;17.50;99.90;;;;;;5005535;28;20173;-32
2023/06/10 00:23:31;;;;;;;7.43;4.80;;;17.40;99.90;;;;;;5007839;28;20034;-32
2023/06/10 00:26:00;;;;;;;5.63;4.60;;;17.30;99.90;;;;;;5007620;28;20049;-32
2023/06/10 00:28:25;;;;;;;8.15;5.43;;;17.30;99.90;;;;;;5008666;28;20120;-32
2023/06/10 00:30:51;;;;;;;7.60;4.63;;;17.30;99.90;;;;;;5008434;28;20488;-32
2023/06/10 00:33:17;;;;;;;6.55;5.20;;;17.30;99.90;;;;;;5006730;28;20051;-32
2023/06/10 00:35:43;;;;;;;6.55;5.03;;;17.30;99.90;;;;;;5010787;28;20080;-32
2023/06/10 00:38:08;;;;;;;7.18;4.78;;;17.20;99.90;;;;;;5007686;28;20041;-32
2023/06/10 00:40:40;;;;;;;7.70;5.35;;;17.20;99.90;;;;;;5006525;28;20030;-33
2023/06/10 00:43:07;;;;;;;10.40;5.20;;;17.10;99.90;;;;;;5005198;28;20046;-33
2023/06/10 00:45:33;;;;;;;6.97;5.00;;;17.20;99.90;;;;;;5008463;28;20407;-32
2023/06/10 00:48:00;;;;;;;9.07;5.00;;;17.10;99.90;;;;;;5009467;28;20049;-32
2023/06/10 00:50:26;;;;;;;8.85;5.05;;;17.10;99.90;;;;;;5025596;28;20085;-32
2023/06/10 00:52:57;;;;;;;9.23;5.60;;;17.10;99.90;;;;;;5002099;28;20065;-32
2023/06/10 00:55:24;;;;;;;8.30;6.18;;;17.10;99.90;;;;;;4993007;28;20034;-33
2023/06/10 00:57:51;;;;;;;6.60;5.35;;;17.00;99.90;;;;;;4996731;28;20034;-33
2023/06/10 01:00:17;;;;;;;6.53;4.95;;;16.90;99.90;;;;;;5009025;28;20113;-32
2023/06/10 01:02:43;;;;;;;6.65;5.20;;;16.90;99.90;;;;;;5010555;28;20042;-32
2023/06/10 01:05:10;;;;;;;9.15;5.53;;;16.90;99.90;;;;;;5009971;28;20038;-32
2023/06/10 01:08:02;;;;;;;10.20;5.43;;;16.80;99.90;;;;;;4991989;28;20563;-32
2023/06/10 01:10:41;;;;;;;8.30;5.57;;;16.90;99.90;;;;;;5006884;28;20061;-32
2023/06/10 01:13:11;;;;;;;8.60;6.20;;;16.80;99.90;;;;;;5013278;28;20113;-32
2023/06/10 01:15:37;;;;;;;10.57;5.80;;;16.80;99.90;;;;;;5012650;28;20034;-32
2023/06/10 01:18:14;;;;;;;10.13;5.80;;;16.80;99.90;;;;;;5004406;28;20060;-33
2023/06/10 01:20:42;;;;;;;7.40;6.00;;;16.80;99.90;;;;;;5014113;28;20045;-32
2023/06/10 01:23:09;;;;;;;6.97;5.97;;;16.80;99.90;;;;;;5011254;28;20113;-32
2023/06/10 01:25:44;;;;;;;7.57;5.38;;;16.70;99.90;;;;;;5013660;28;20373;-33
2023/06/10 01:28:09;;;;;;;6.28;5.32;;;16.70;99.90;;;;;;5013171;28;20041;-32
2023/06/10 01:31:00;;;;;;;10.68;5.80;;;16.70;99.90;;;;;;5012954;28;20491;-32
2023/06/10 01:33:31;;;;;;;7.07;5.50;;;16.70;99.90;;;;;;5008992;28;20037;-32
2023/06/10 01:35:58;;;;;;;7.85;6.05;;;16.60;99.90;;;;;;5009227;28;20030;-33
2023/06/10 01:38:27;;;;;;;6.88;5.18;;;16.60;99.90;;;;;;5012311;28;20038;-32
2023/06/10 01:40:56;;;;;;;8.40;6.40;;;16.60;99.90;;;;;;5008185;28;20507;-32
2023/06/10 01:43:22;;;;;;;8.23;5.70;;;16.60;99.90;;;;;;5013268;28;20045;-32
2023/06/10 01:45:48;;;;;;;8.77;5.82;;;16.50;99.90;;;;;;5028623;28;20466;-32
2023/06/10 01:48:14;;;;;;;8.60;5.40;;;16.50;99.90;;;;;;5012965;28;20048;-33
2023/06/10 01:50:40;;;;;;;8.52;6.15;;;16.50;99.90;;;;;;5012425;28;20049;-32
2023/06/10 01:53:05;;;;;;;10.98;5.97;;;16.40;99.90;;;;;;5013031;28;20046;-33
2023/06/10 01:55:31;;;;;;;8.00;5.40;;;16.30;99.90;;;;;;5012948;28;20117;-32
2023/06/10 01:57:57;;;;;;;10.23;6.10;;;16.30;99.90;;;;;;5010563;28;20065;-33
2023/06/10 02:00:22;;;;;;;8.30;6.32;;;16.30;99.90;;;;;;5012256;28;20422;-32
2023/06/10 02:02:48;;;;;;;8.88;6.13;;;16.20;99.90;;;;;;5012515;28;20046;-33
2023/06/10 02:05:14;;;;;;;10.77;6.63;;;16.20;99.90;;;;;;5012446;28;20081;-33
2023/06/10 02:07:40;;;;;;;7.38;5.50;;;16.10;99.90;;;;;;5012422;28;20049;-32
2023/06/10 02:10:07;;;;;;;8.85;6.45;;;16.10;99.90;;;;;;5012673;28;20070;-32
2023/06/10 02:12:33;;;;;;;12.70;6.55;;;16.00;99.90;;;;;;5010138;28;20466;-33
2023/06/10 02:14:59;;;;;;;9.13;6.25;;;16.00;99.90;;;;;;5005268;28;20035;-32
2023/06/10 02:17:26;;;;;;;8.63;5.72;;;16.00;99.90;;;;;;5009072;28;20034;-32
2023/06/10 02:19:54;;;;;;;8.13;6.20;;;15.90;99.90;;;;;;5012360;28;20076;-32
2023/06/10 02:22:21;;;;;;;10.18;6.18;;;15.90;99.90;;;;;;5010784;28;20042;-32
2023/06/10 02:24:47;;;;;;;9.13;5.78;;;15.80;99.90;;;;;;5028189;28;20452;-32
2023/06/10 02:27:14;;;;;;;7.30;5.93;;;15.80;99.90;;;;;;5012118;28;20143;-32
2023/06/10 02:29:41;;;;;;;9.07;6.13;;;15.70;99.90;;;;;;5023498;28;20088;-32
2023/06/10 02:32:07;;;;;;;10.27;6.63;;;15.70;99.90;;;;;;5012256;28;20042;-32
2023/06/10 02:34:33;;;;;;;8.98;6.45;;;15.70;99.90;;;;;;5007637;28;20041;-33
2023/06/10 02:37:00;;;;;;;8.93;6.65;;;15.60;99.90;;;;;;5013123;28;20488;-32
2023/06/10 02:39:26;;;;;;;10.70;6.63;;;15.60;99.90;;;;;;5012658;28;20095;-32
2023/06/10 02:41:52;;;;;;;12.18;7.25;;;15.50;99.90;;;;;;5012594;28;20033;-32
2023/06/10 02:44:20;;;;;;;7.95;6.45;;;15.50;99.90;;;;;;5011096;28;20041;-33
2023/06/10 02:46:46;;;;;;;8.90;6.95;;;15.40;99.90;;;;;;5012385;28;20573;-33
2023/06/10 02:49:12;;;;;;;9.20;6.53;;;15.40;99.90;;;;;;5010504;28;20129;-33
2023/06/10 02:51:38;;;;;;;12.07;7.03;;;15.40;99.90;;;;;;4994909;28;20121;-33
2023/06/10 02:54:04;;;;;;;12.15;6.82;;;15.40;99.90;;;;;;5006263;28;20189;-33
2023/06/10 02:56:31;;;;;;;9.50;6.53;;;15.30;99.90;;;;;;5010089;28;20430;-33
2023/06/10 02:58:57;;;;;;;11.00;6.85;;;15.30;99.90;;;;;;5002442;28;20140;-33
2023/06/10 03:01:23;;;;;;;9.73;6.45;;;15.20;99.90;;;;;;5011448;28;20048;-33
2023/06/10 03:03:50;;;;;;;9.82;7.13;;;15.20;99.90;;;;;;5009690;28;20033;-33
2023/06/10 03:06:16;;;;;;;9.70;6.53;;;15.20;99.90;;;;;;5011512;28;20049;-32
2023/06/10 03:08:42;;;;;;;9.32;6.32;;;15.20;99.90;;;;;;5010956;28;20033;-33
2023/06/10 03:11:08;;;;;;;8.40;6.38;;;15.10;99.90;;;;;;5011302;28;20507;-33
2023/06/10 03:13:34;;;;;;;10.40;6.85;;;15.20;99.90;;;;;;5010387;28;20038;-33
2023/06/10 03:16:00;;;;;;;10.23;6.20;;;15.10;99.90;;;;;;5011578;28;20038;-33
2023/06/10 03:18:27;;;;;;;10.82;6.45;;;15.10;99.90;;;;;;5011338;28;20438;-33
2023/06/10 03:20:53;;;;;;;9.57;6.55;;;15.10;99.90;;;;;;5017101;28;20038;-33
2023/06/10 03:23:19;;;;;;;10.45;6.65;;;15.00;99.90;;;;;;5010839;28;20042;-33
2023/06/10 03:25:45;;;;;;;12.35;6.60;;;15.00;99.90;;;;;;5010814;28;20044;-32
2023/06/10 03:28:11;;;;;;;9.10;5.85;;;15.00;99.90;;;;;;5010816;28;20095;-33
2023/06/10 03:30:37;;;;;;;10.35;6.55;;;15.00;99.90;;;;;;5025616;28;20041;-32
2023/06/10 03:33:02;;;;;;;7.35;6.20;;;15.00;99.90;;;;;;5010699;28;20048;-33
2023/06/10 03:35:29;;;;;;;9.85;6.13;;;14.90;99.90;;;;;;5009256;28;20049;-33
2023/06/10 03:37:55;;;;;;;8.00;6.22;;;14.90;99.90;;;;;;5004108;28;20034;-33
2023/06/10 03:40:21;;;;;;;8.48;5.88;;;14.80;99.90;;;;;;5011429;28;20037;-33
2023/06/10 03:42:46;;;;;;;7.95;6.10;;;14.80;99.90;;;;;;5010114;28;20061;-33
2023/06/10 03:45:12;;;;;;;11.02;6.90;;;14.80;99.90;;;;;;5010560;28;20411;-33
2023/06/10 03:47:39;;;;;;;10.05;6.57;;;14.80;99.90;;;;;;5004080;28;20038;-33
2023/06/10 03:50:07;;;;;;;8.10;6.45;;;14.80;99.90;;;;;;5011520;28;20041;-33
2023/06/10 03:52:34;;;;;;;8.98;6.53;;;14.80;99.90;;;;;;5011076;28;20155;-33
2023/06/10 03:54:59;;;;;;;8.27;6.32;;;14.70;99.90;;;;;;5010847;28;20057;-33
2023/06/10 03:57:25;;;;;;;10.50;6.55;;;14.70;99.90;;;;;;5007842;28;20499;-33
2023/06/10 03:59:51;;;;;;;8.85;6.25;;;14.70;99.90;;;;;;5010037;28;20048;-33
2023/06/10 04:02:17;;;;;;;10.55;6.93;;;14.70;99.90;;;;;;5010320;28;20117;-33
2023/06/10 04:04:43;;;;;;;8.05;6.38;;;14.80;99.90;;;;;;5010231;28;20113;-33
2023/06/10 04:07:09;;;;;;;10.40;6.53;;;14.70;99.90;;;;;;5010965;28;20054;-33
2023/06/10 04:09:36;;;;;;;9.18;6.10;;;14.80;99.90;;;;;;5011639;28;20762;-32
2023/06/10 04:12:02;;;;;;;7.80;6.20;;;14.80;99.90;;;;;;5010134;28;20040;-32
2023/06/10 04:14:28;;;;;;;9.15;6.38;;;14.80;99.90;;;;;;5009680;28;20038;-33
2023/06/10 04:16:54;;;;;;;9.32;6.50;;;14.80;99.90;;;;;;5010313;28;20037;-33
2023/06/10 04:19:20;;;;;;;11.35;6.63;;;14.80;99.90;;;;;;5009618;28;20555;-32
2023/06/10 04:21:46;;;;;;;9.23;6.60;;;14.90;99.90;;;;;;5010236;28;20033;-33
2023/06/10 04:24:12;;;;;;;9.70;6.47;;;14.90;99.90;;;;;;5009683;28;20041;-33
2023/06/10 04:26:38;;;;;;;9.10;6.03;;;14.90;99.90;;;;;;5008524;28;20045;-33
2023/06/10 04:29:04;;;;;;;7.75;5.82;;;15.00;99.90;;;;;;5008313;28;20034;-33
2023/06/10 04:31:29;;;;;;;8.27;6.00;;;15.00;99.90;;;;;;5010401;28;20055;-33
2023/06/10 04:33:55;;;;;;;7.82;6.00;;;15.00;99.90;;;;;;5009166;28;20045;-33
2023/06/10 04:36:21;;;;;;;9.85;6.15;;;15.00;99.90;;;;;;4993462;28;20458;-33
2023/06/10 04:38:47;;;;;;;9.88;6.22;;;15.10;99.90;;;;;;5006290;28;20025;-33
2023/06/10 04:41:13;;;;;;;11.32;6.85;;;15.10;99.90;;;;;;5009782;28;20103;-33
2023/06/10 04:43:38;;;;;;;10.48;6.78;;;15.10;99.90;;;;;;5005615;28;20456;-32
2023/06/10 04:46:05;;;;;;;9.18;6.43;;;15.20;99.90;;;;;;5007345;28;20065;-32
2023/06/10 04:48:31;;;;;;;11.98;7.18;;;15.20;99.90;;;;;;5011384;28;20124;-32
2023/06/10 04:50:58;;;;;;;10.50;6.50;;;15.20;99.90;;;;;;5010045;28;20037;-33
2023/06/10 04:53:24;;;;;;;10.70;7.15;;;15.30;99.90;;;;;;5013034;28;20107;-33
2023/06/10 04:55:50;;;;;;;10.93;6.70;;;15.20;99.90;;;;;;5013847;28;20034;-33
2023/06/10 04:58:15;;;;;;;9.75;7.18;;;15.30;99.90;;;;;;5008679;28;20519;-33
2023/06/10 05:00:41;;;;;;;10.63;6.80;;;15.40;99.90;;;;;;5013358;28;20038;-33
2023/06/10 05:03:07;;;;;;;10.18;6.80;;;15.40;99.90;;;;;;5009301;28;20050;-33
2023/06/10 05:05:33;;;;;;;7.72;6.50;;;15.40;99.90;;;;;;5013647;28;20042;-33
2023/06/10 05:07:58;;;;;;;16.90;7.00;;;15.50;99.90;;;;;;5005963;28;20046;-33
2023/06/10 05:10:24;;;;;;;10.15;7.07;;;15.50;99.90;;;;;;5013515;28;20041;-33
2023/06/10 05:12:50;;;;;;;10.02;6.82;;;15.50;99.90;;;;;;5008430;28;20068;-33
2023/06/10 05:15:16;;;;;;;10.60;6.93;;;15.60;99.90;;;;;;5008397;28;20099;-33
2023/06/10 05:17:41;;;;;;;9.43;6.55;;;15.70;99.90;;;;;;5008267;28;20526;-33
2023/06/10 05:20:08;;;;;;;9.93;7.07;;;15.70;99.90;;;;;;5013307;28;20492;-32
2023/06/10 05:22:34;;;;;;;10.88;6.60;;;15.70;99.90;;;;;;5013103;28;20038;-32
2023/06/10 05:25:00;;;;;;;11.90;7.15;;;15.80;99.90;;;;;;5012859;28;20037;-32
2023/06/10 05:27:25;;;;;;;9.95;6.68;;;15.90;99.90;;;;;;5030213;28;20037;-33
2023/06/10 05:29:51;;;;;;;9.25;7.07;;;15.90;99.90;;;;;;5002739;28;20037;-32
2023/06/10 05:32:17;;;;;;;8.82;6.30;;;16.00;99.90;;;;;;5011842;28;20159;-33
2023/06/10 05:34:43;;;;;;;10.38;7.30;;;16.20;99.90;;;;;;5011960;28;20104;-33
2023/06/10 05:37:09;;;;;;;7.68;6.40;;;16.20;99.90;;;;;;4996867;28;20046;-33
2023/06/10 05:39:37;;;;;;;8.02;6.35;;;16.30;99.90;;;;;;5012183;28;20041;-33
2023/06/10 05:42:06;;;;;;;8.48;6.35;;;16.40;99.90;;;;;;5013064;28;20042;-33
2023/06/10 05:44:32;;;;;;;9.52;6.70;;;16.50;99.90;;;;;;5008693;28;20501;-33
2023/06/10 05:46:58;;;;;;;10.15;6.55;;;16.60;99.90;;;;;;5013280;28;20037;-33
2023/06/10 05:49:24;;;;;;;9.10;6.43;;;16.70;99.90;;;;;;5007817;28;20238;-33
2023/06/10 05:51:52;;;;;;;9.32;7.35;;;16.70;99.90;;;;;;5012645;28;20049;-33
2023/06/10 05:54:18;;;;;;;12.88;6.78;;;16.80;99.90;;;;;;5012815;28;20084;-33
2023/06/10 05:56:43;;;;;;;9.82;6.72;;;16.90;99.90;;;;;;5012109;28;20476;-33
2023/06/10 05:59:09;;;;;;;11.90;6.28;;;17.00;99.90;;;;;;5012946;28;20042;-33
2023/06/10 06:01:35;;;;;;;7.32;6.35;;;17.00;99.90;;;;;;5004283;28;20111;-33
2023/06/10 06:04:01;;;;;;;9.20;6.65;;;17.10;99.90;;;;;;5012521;28;20511;-33
2023/06/10 06:06:27;;;;;;;9.15;6.90;;;17.20;99.90;;;;;;5009180;28;20100;-33
2023/06/10 06:08:52;;;;;;;11.23;7.15;;;17.30;99.90;;;;;;5012966;28;20407;-31
2023/06/10 06:11:18;;;;;;;11.50;7.03;;;17.30;99.90;;;;;;5002757;28;20609;-31
2023/06/10 06:13:44;;;;;;;7.07;6.38;;;17.50;99.90;;;;;;5011244;28;20038;-34
2023/06/10 06:16:09;;;;;;;11.10;6.57;;;17.60;99.90;;;;;;5012832;28;20033;-31
2023/06/10 06:18:35;;;;;;;10.07;6.65;;;17.70;99.90;;;;;;5012231;28;20045;-31
2023/06/10 06:21:01;;;;;;;9.40;6.53;;;17.70;99.90;;;;;;5010727;28;20165;-32
2023/06/10 06:23:26;;;;;;;9.95;6.80;;;17.90;99.90;;;;;;5011742;28;20038;-31
2023/06/10 06:25:52;;;;;;;9.30;6.80;;;18.00;99.90;;;;;;5012517;28;20045;-31
2023/06/10 06:28:20;;;;;;;9.07;6.82;;;18.00;99.90;;;;;;4995755;28;20045;-31
2023/06/10 06:30:46;;;;;;;10.73;6.82;;;18.10;99.90;;;;;;5009735;28;20049;-32
2023/06/10 06:33:13;;;;;;;8.10;6.90;;;18.10;99.90;;;;;;5005590;28;20408;-32
2023/06/10 06:35:40;;;;;;;8.98;6.80;;;18.10;99.90;;;;;;5003230;28;20030;-31
2023/06/10 06:38:05;;;;;;;10.98;6.45;;;18.20;99.90;;;;;;5011892;28;20034;-31
2023/06/10 06:40:31;;;;;;;10.20;6.65;;;18.40;99.90;;;;;;5005383;28;20108;-32
2023/06/10 06:42:57;;;;;;;10.35;6.55;;;18.50;99.90;;;;;;5011807;28;20495;-31
2023/06/10 06:45:23;;;;;;;11.25;6.95;;;18.60;99.90;;;;;;5011690;28;20034;-31
2023/06/10 06:47:48;;;;;;;9.38;6.25;;;18.70;99.90;;;;;;5011317;28;20034;-32
2023/06/10 06:50:15;;;;;;;9.13;6.53;;;18.80;99.90;;;;;;4992688;28;20038;-31
2023/06/10 06:52:41;;;;;;;10.10;6.82;;;18.90;99.90;;;;;;5004831;28;20038;-31
2023/06/10 06:55:07;;;;;;;12.65;7.53;;;18.90;99.90;;;;;;5011222;28;20068;-31
2023/06/10 06:57:32;;;;;;;9.73;6.68;;;19.10;99.90;;;;;;5005374;28;20038;-32
2023/06/10 06:59:58;;;;;;;8.02;6.53;;;19.10;99.90;;;;;;5011103;28;20369;-31
2023/06/10 07:02:24;;;;;;;7.95;6.45;;;19.20;99.90;;;;;;5011368;28;20037;-32
2023/06/10 07:04:50;;;;;;;9.63;6.78;;;19.30;99.90;;;;;;5011170;28;20064;-31
2023/06/10 07:07:16;;;;;;;10.85;6.30;;;19.40;99.90;;;;;;5011647;28;20045;-31
2023/06/10 07:09:42;;;;;;;11.02;6.18;;;19.60;99.90;;;;;;5005454;28;20042;-31
2023/06/10 07:12:08;;;;;;;10.90;6.35;;;19.70;99.90;;;;;;5010415;28;20037;-31
2023/06/10 07:14:34;;;;;;;9.63;6.20;;;19.90;99.90;;;;;;5008508;28;20092;-32
2023/06/10 07:17:00;;;;;;;11.88;6.50;;;19.90;99.90;;;;;;5010749;28;20113;-31
2023/06/10 07:19:25;;;;;;;8.68;6.20;;;20.00;99.90;;;;;;5007645;28;20030;-31
2023/06/10 07:21:51;;;;;;;10.25;6.38;;;20.10;99.90;;;;;;5004348;28;20045;-31
2023/06/10 07:24:17;;;;;;;8.10;6.20;;;20.20;99.90;;;;;;5026020;28;20442;-31
2023/06/10 07:26:42;;;;;;;9.52;5.50;;;20.30;99.90;;;;;;5008742;28;20088;-31
2023/06/10 07:29:08;;;;;;;7.43;6.00;;;20.30;99.90;;;;;;5010900;28;20052;-31
2023/06/10 07:31:34;;;;;;;8.90;6.03;;;20.40;99.90;;;;;;5002907;28;20052;-31
2023/06/10 07:34:00;;;;;;;7.80;6.00;;;20.60;99.90;;;;;;5010370;28;20042;-32
2023/06/10 07:36:28;;;;;;;11.38;5.93;;;20.70;99.90;;;;;;5011349;28;20381;-32
2023/06/10 07:38:54;;;;;;;7.22;5.53;;;20.80;99.90;;;;;;5008966;28;20038;-31
2023/06/10 07:41:22;;;;;;;9.20;6.15;;;21.00;99.90;;;;;;5011073;28;20022;-32
2023/06/10 07:43:48;;;;;;;9.88;5.70;;;21.00;99.90;;;;;;5011004;28;20034;-32
2023/06/10 07:46:13;;;;;;;10.55;6.07;;;21.20;99.90;;;;;;5010142;28;20042;-32
2023/06/10 07:48:39;;;;;;;7.18;5.25;;;21.30;99.90;;;;;;5008755;28;20282;-32
2023/06/10 07:51:05;;;;;;;9.63;5.97;;;21.50;99.90;;;;;;5010693;28;20033;-31
2023/06/10 07:53:30;;;;;;;9.07;6.25;;;21.60;99.90;;;;;;5010542;28;20574;-31
2023/06/10 07:55:56;;;;;;;10.02;5.90;;;21.80;99.90;;;;;;4994577;28;20041;-32
2023/06/10 07:58:22;;;;;;;9.27;5.90;;;21.80;99.90;;;;;;5009413;28;20495;-32
2023/06/10 08:00:48;;;;;;;7.28;5.70;;;22.10;99.90;;;;;;5007617;28;20057;-32
2023/06/10 08:03:13;;;;;;;10.13;6.38;;;22.20;99.90;;;;;;5009435;28;20096;-31
2023/06/10 08:05:40;;;;;;;7.45;5.70;;;22.20;99.90;;;;;;5010151;28;20049;-32
2023/06/10 08:08:06;;;;;;;10.23;6.82;;;22.30;99.90;;;;;;5009747;28;20034;-32
2023/06/10 08:10:32;;;;;;;9.00;6.55;;;22.40;99.90;;;;;;5007708;28;20034;-32
2023/06/10 08:13:01;;;;;;;8.65;6.93;;;22.40;99.90;;;;;;5009667;28;20503;-32
2023/06/10 08:15:27;;;;;;;9.30;6.80;;;22.50;99.90;;;;;;5009667;28;20029;-32
2023/06/10 08:17:53;;;;;;;10.55;7.13;;;22.50;99.90;;;;;;5003819;28;20469;-32
2023/06/10 08:20:18;;;;;;;9.27;7.43;;;22.80;99.90;;;;;;5008690;28;20088;-32
2023/06/10 08:22:44;;;;;;;8.27;6.82;;;23.10;99.90;;;;;;5004453;28;20042;-32
2023/06/10 08:25:10;;;;;;;9.20;6.90;;;23.20;99.90;;;;;;5009996;28;20038;-32
2023/06/10 08:27:36;;;;;;;12.73;7.63;;;23.40;99.90;;;;;;5009922;28;20045;-32
2023/06/10 08:30:01;;;;;;;9.98;7.28;;;23.50;99.90;;;;;;5009625;28;20083;-32
2023/06/10 08:32:27;;;;;;;8.20;7.03;;;23.50;99.90;;;;;;5008188;28;20038;-31
2023/06/10 08:34:53;;;;;;;10.40;7.70;;;23.70;99.90;;;;;;5009300;28;20042;-31
2023/06/10 08:37:19;;;;;;;8.38;7.53;;;23.80;99.90;;;;;;5009898;28;20096;-32
2023/06/10 08:39:45;;;;;;;9.40;8.35;;;23.80;99.90;;;;;;5007354;28;20034;-32
2023/06/10 08:42:37;;;;;;;12.48;8.15;;;23.90;99.90;;;;;;4998656;28;20099;-32
2023/06/10 08:45:05;;;;;;;10.35;8.02;;;24.10;99.90;;;;;;4980941;28;20396;-32
2023/06/10 08:47:37;;;;;;;10.38;8.02;;;24.20;99.90;;;;;;5000281;28;20100;-32
2023/06/10 08:50:04;;;;;;;8.07;6.90;;;24.30;99.50;;;;;;5009173;28;20439;-32
2023/06/10 08:52:39;;;;;;;9.50;7.28;;;24.50;98.70;;;;;;5009409;28;20121;-33
2023/06/10 08:55:19;;;;;;;10.65;6.85;;;24.70;97.90;;;;;;5006820;28;20543;-33
2023/06/10 08:57:47;;;;;;;10.65;7.68;;;24.70;92.40;;;;;;5009657;28;20066;-32
2023/06/10 09:00:14;;;;;;;8.80;6.97;;;24.80;93.60;;;;;;5009406;28;20045;-33
2023/06/10 09:02:40;;;;;;;9.10;8.05;;;25.00;92.60;;;;;;5005733;28;20034;-33
2023/06/10 09:05:09;;;;;;;7.93;7.13;;;25.10;91.80;;;;;;4993612;28;20034;-33
2023/06/10 09:07:36;;;;;;;10.52;7.00;;;25.20;84.00;;;;;;5010899;28;20109;-33
2023/06/10 09:10:04;;;;;;;10.20;7.80;;;25.40;87.60;;;;;;5004606;28;20070;-33
2023/06/10 09:12:30;;;;;;;9.93;8.13;;;25.40;82.50;;;;;;5005661;28;20041;-33
2023/06/10 09:14:56;;;;;;;10.65;6.55;;;25.50;80.80;;;;;;5009245;28;20156;-33
2023/06/10 09:17:22;;;;;;;11.70;7.95;;;25.80;81.00;;;;;;5023701;28;20044;-33
2023/06/10 09:19:50;;;;;;;7.78;6.97;;;25.80;74.90;;;;;;5009119;28;20121;-33
2023/06/10 09:22:16;;;;;;;9.38;6.65;;;26.00;75.80;;;;;;5012016;28;20515;-33
2023/06/10 09:24:42;;;;;;;9.45;7.30;;;26.20;76.20;;;;;;5006732;28;20038;-33
2023/06/10 09:27:08;;;;;;;9.18;7.25;;;26.40;74.00;;;;;;5009984;28;20033;-33
2023/06/10 09:29:54;;;;;;;7.68;6.45;;;26.60;73.30;;;;;;5009401;28;20046;-33
2023/06/10 09:32:20;;;;;;;7.65;6.38;;;26.80;68.80;;;;;;5010077;28;20030;-33
2023/06/10 09:34:47;;;;;;;8.35;7.25;;;26.80;68.00;;;;;;5010164;28;20030;-33
2023/06/10 09:37:19;;;;;;;7.57;6.65;;;26.80;67.60;;;;;;5012511;28;20044;-33
2023/06/10 09:40:00;;;;;;;7.43;6.35;;;26.90;68.80;;;;;;5013203;28;20423;-33
2023/06/10 09:42:25;;;;;;;6.45;5.78;;;27.10;67.90;;;;;;5013347;28;20403;-33
2023/06/10 09:44:52;;;;;;;5.88;5.18;;;27.20;66.40;;;;;;5006196;28;20113;-34
2023/06/10 09:47:22;;;;;;;6.53;5.72;;;27.20;64.80;;;;;;5010120;28;20056;-33
2023/06/10 09:49:50;;;;;;;5.82;5.32;;;27.30;61.90;;;;;;5012574;28;20033;-34
2023/06/10 09:52:22;;;;;;;6.85;4.90;;;27.40;61.70;;;;;;5012089;28;20037;-34
2023/06/10 09:54:48;;;;;;;6.57;4.88;;;27.50;60.20;;;;;;5007803;28;20048;-33
2023/06/10 09:57:16;;;;;;;6.68;5.55;;;27.60;60.80;;;;;;5012496;28;20078;-34
2023/06/10 09:59:42;;;;;;;8.18;4.57;;;27.60;59.20;;;;;;5012559;28;20553;-34
2023/06/10 10:02:14;;;;;;;5.47;4.97;;;27.80;59.70;;;;;;5012147;28;20049;-33
2023/06/10 10:04:40;;;;;;;5.25;4.50;;;27.90;58.40;;;;;;5007439;28;20133;-34
2023/06/10 10:07:07;;;;;;;5.25;4.70;;;28.20;58.80;;;;;;5012222;28;20156;-34
2023/06/10 10:09:33;;;;;;;6.53;4.70;;;28.30;57.70;;;;;;5005786;28;20034;-34
2023/06/10 10:12:01;;;;;;;5.50;4.70;;;28.60;56.70;;;;;;5012334;28;20042;-34
2023/06/10 10:14:31;;;;;;;9.70;4.93;;;28.50;54.80;;;;;;5028663;28;20061;-34
2023/06/10 10:16:59;;;;;;;7.57;4.55;;;28.60;54.60;;;;;;5012618;28;20072;-34
2023/06/10 10:19:32;;;;;;;6.38;3.97;;;28.50;53.70;;;;;;5010515;28;20042;-34
2023/06/10 10:22:29;;;;;;;5.65;4.47;;;28.80;51.00;;;;;;5011201;28;20038;-34
2023/06/10 10:24:57;;;;;;;4.85;3.90;;;29.10;52.10;;;;;;5012007;28;20037;-33
2023/06/10 10:27:35;;;;;;;4.55;4.10;;;29.50;52.70;;;;;;5012920;28;20045;-34
2023/06/10 10:30:08;;;;;;;6.95;4.32;;;29.90;51.70;;;;;;5008280;28;20042;-34
2023/06/10 10:32:43;;;;;;;4.57;4.07;;;29.90;51.20;;;;;;5008604;28;20096;-34
2023/06/10 10:35:24;;;;;;;5.82;3.90;;;29.80;47.70;;;;;;5011962;28;20136;-34
2023/06/10 10:37:54;;;;;;;4.07;3.60;;;30.00;50.20;;;;;;5011945;28;20091;-34
2023/06/10 10:40:25;;;;;;;5.00;3.85;;;30.00;49.80;;;;;;5008250;28;20447;-34
2023/06/10 10:42:51;;;;;;;4.78;3.80;;;30.30;47.40;;;;;;5006091;28;20041;-34
2023/06/10 10:45:17;;;;;;;6.53;3.88;;;30.40;49.00;;;;;;5008639;28;20084;-34
2023/06/10 10:47:45;;;;;;;4.97;3.45;;;30.50;48.80;;;;;;5007739;28;20038;-34
2023/06/10 10:50:19;;;;;;;7.10;3.92;;;30.70;47.80;;;;;;4991480;28;20065;-34
2023/06/10 10:52:56;;;;;;;4.15;3.05;;;30.90;43.50;;;;;;5027749;28;20121;-34
2023/06/10 10:55:24;;;;;;;4.75;3.85;;;31.00;45.90;;;;;;5013227;28;20044;-34
2023/06/10 10:58:03;;;;;;;4.95;3.17;;;31.10;46.00;;;;;;5011439;28;20105;-34
2023/06/10 11:00:33;;;;;;;4.15;3.05;;;31.30;44.60;;;;;;5011724;28;20042;-34
2023/06/10 11:03:03;;;;;;;4.20;3.40;;;31.30;43.70;;;;;;5014846;28;20112;-34
2023/06/10 11:05:51;;;;;;;4.10;3.28;;;31.40;42.90;;;;;;5006807;28;20045;-34
2023/06/10 11:08:29;;;;;;;3.63;3.30;;;31.40;41.70;;;;;;5014559;28;20046;-34
2023/06/10 11:13:39;;;;;;;3.78;3.20;;;31.70;42.30;;;;;;4872277;22;20049;-34
2023/06/10 11:16:09;;;;;;;4.28;3.28;;;31.90;42.60;;;;;;5033532;28;20044;-35
2023/06/10 11:18:39;;;;;;;4.47;3.47;;;32.10;41.80;;;;;;5050535;28;20038;-35
2023/06/10 11:21:05;;;;;;;4.95;3.22;;;32.00;41.10;;;;;;5050216;28;20041;-35
2023/06/10 11:23:33;;;;;;;3.47;3.03;;;32.10;39.80;;;;;;5050214;28;20041;-35
2023/06/10 11:26:34;;;;;;;3.50;3.20;;;32.10;40.60;;;;;;5050521;28;20037;-36
2023/06/10 11:29:04;;;;;;;3.70;3.30;;;32.40;39.80;;;;;;5026337;28;20489;-36
2023/06/10 11:31:32;;;;;;;4.07;3.30;;;32.40;40.10;;;;;;5026959;28;20061;-36
2023/06/10 11:33:59;;;;;;;3.55;3.25;;;32.60;39.10;;;;;;5030486;28;20065;-36
2023/06/10 11:36:26;;;;;;;4.93;3.08;;;32.60;38.00;;;;;;5032108;28;20046;-36
2023/06/10 11:38:57;;;;;;;3.42;3.13;;;32.50;38.20;;;;;;5030204;28;20033;-37
2023/06/10 11:41:27;;;;;;;2.97;2.65;;;32.60;37.20;;;;;;5033498;28;20040;-36
2023/06/10 11:43:58;;;;;;;4.07;3.45;;;32.60;38.00;;;;;;5032921;28;20044;-36
2023/06/10 11:46:27;;;;;;;3.58;3.28;;;32.50;36.70;;;;;;5049047;28;20052;-36
2023/06/10 11:48:59;;;;;;;3.22;2.92;;;32.50;36.70;;;;;;5026870;28;20072;-36
2023/06/10 11:51:35;;;;;;;3.27;2.97;;;32.70;35.90;;;;;;5049399;28;20055;-35
2023/06/10 11:54:03;;;;;;;3.67;3.38;;;32.50;35.90;;;;;;5037714;28;20045;-36
2023/06/10 11:56:31;;;;;;;3.33;3.05;;;32.80;37.00;;;;;;5033603;28;20059;-36
2023/06/10 11:59:03;;;;;;;4.38;3.03;;;32.90;36.40;;;;;;5046574;28;20036;-37
2023/06/10 12:01:32;;;;;;;5.07;3.17;;;33.10;36.60;;;;;;5053510;28;20033;-36
2023/06/10 12:03:58;;;;;;;3.78;2.80;;;33.50;36.00;;;;;;5038997;28;20117;-37
2023/06/10 12:06:26;;;;;;;5.25;2.63;;;33.60;35.00;;;;;;5048569;28;20033;-36
2023/06/10 12:08:55;;;;;;;4.53;2.92;;;33.50;35.00;;;;;;5031240;28;20041;-36
2023/06/10 12:11:23;;;;;;;3.58;2.80;;;33.80;34.70;;;;;;5054207;28;20040;-36
2023/06/10 12:13:50;;;;;;;2.75;2.55;;;34.00;33.50;;;;;;5029259;28;20041;-36
2023/06/10 12:16:19;;;;;;;2.78;2.55;;;34.20;33.40;;;;;;5048856;28;20068;-37
2023/06/10 12:18:46;;;;;;;2.97;2.60;;;34.00;33.30;;;;;;5051003;28;20041;-36
2023/06/10 12:21:20;;;;;;;4.35;2.78;;;34.30;32.60;;;;;;5023920;28;20049;-36
2023/06/10 12:24:08;;;;;;;2.80;2.60;;;34.50;32.50;;;;;;5032431;28;20060;-36
2023/06/10 12:26:55;;;;;;;3.30;2.72;;;34.50;30.60;;;;;;5029625;28;20053;-36
2023/06/10 12:29:24;;;;;;;4.50;2.50;;;34.50;31.10;;;;;;5047783;28;20045;-36
2023/06/10 12:32:05;;;;;;;3.75;2.70;;;34.40;31.10;;;;;;5047723;28;20037;-36
2023/06/10 12:34:32;;;;;;;4.05;2.70;;;34.80;30.90;;;;;;5048135;28;20037;-36
2023/06/10 12:36:57;;;;;;;2.88;2.67;;;34.90;32.40;;;;;;5030379;28;20093;-36
2023/06/10 12:39:23;;;;;;;4.20;2.88;;;35.10;31.70;;;;;;5032576;28;20425;-36
2023/06/10 12:41:50;;;;;;;3.15;2.55;;;35.30;31.20;;;;;;5048129;28;20034;-36
2023/06/10 12:44:16;;;;;;;4.43;2.72;;;35.30;30.70;;;;;;5022880;28;20077;-37
2023/06/10 12:46:42;;;;;;;2.63;2.42;;;35.70;31.10;;;;;;5034256;28;20076;-36
2023/06/10 12:49:08;;;;;;;2.97;2.60;;;35.60;29.80;;;;;;5036600;28;20042;-36